sensor_id;sensor_type;location;lat;lon;timestamp;P1;durP1;ratioP1;P2;durP2;ratioP2
813;SDS011;389;48.710;9.392;2022-08-11T00:02:47;5.43;;;4.00;;
813;SDS011;389;48.710;9.392;2022-08-11T00:05:16;4.17;;;3.87;;
813;SDS011;389;48.710;9.392;2022-08-11T00:07:51;4.53;;;4.17;;
813;SDS011;389;48.710;9.392;2022-08-11T00:10:19;4.53;;;4.13;;
813;SDS011;389;48.710;9.392;2022-08-11T00:12:57;4.03;;;3.73;;
813;SDS011;389;48.710;9.392;2022-08-11T00:15:26;4.63;;;4.07;;
813;SDS011;389;48.710;9.392;2022-08-11T00:18:01;4.53;;;4.13;;
813;SDS011;389;48.710;9.392;2022-08-11T00:20:31;6.63;;;4.30;;
813;SDS011;389;48.710;9.392;2022-08-11T00:23:00;5.80;;;4.80;;
813;SDS011;389;48.710;9.392;2022-08-11T00:25:30;4.60;;;4.20;;
813;SDS011;389;48.710;9.392;2022-08-11T00:28:21;5.37;;;4.83;;
813;SDS011;389;48.710;9.392;2022-08-11T00:30:49;4.87;;;4.37;;
813;SDS011;389;48.710;9.392;2022-08-11T00:33:16;6.60;;;5.00;;
813;SDS011;389;48.710;9.392;2022-08-11T00:35:42;5.10;;;4.60;;
813;SDS011;389;48.710;9.392;2022-08-11T00:38:09;5.43;;;4.93;;
813;SDS011;389;48.710;9.392;2022-08-11T00:40:38;5.37;;;4.43;;
813;SDS011;389;48.710;9.392;2022-08-11T00:51:22;5.20;;;4.70;;
813;SDS011;389;48.710;9.392;2022-08-11T00:54:26;5.00;;;4.50;;
813;SDS011;389;48.710;9.392;2022-08-11T00:59:53;5.27;;;4.83;;
813;SDS011;389;48.710;9.392;2022-08-11T01:08:18;5.20;;;4.70;;
813;SDS011;389;48.710;9.392;2022-08-11T01:28:41;8.80;;;6.30;;
813;SDS011;389;48.710;9.392;2022-08-11T01:31:36;7.57;;;6.03;;
813;SDS011;389;48.710;9.392;2022-08-11T01:40:13;9.47;;;7.40;;
813;SDS011;389;48.710;9.392;2022-08-11T01:46:20;7.03;;;6.33;;
813;SDS011;389;48.710;9.392;2022-08-11T01:49:11;8.70;;;7.37;;
813;SDS011;389;48.710;9.392;2022-08-11T01:54:36;6.80;;;6.20;;
813;SDS011;389;48.710;9.392;2022-08-11T01:59:49;7.00;;;6.17;;
813;SDS011;389;48.710;9.392;2022-08-11T02:06:11;7.17;;;6.47;;
813;SDS011;389;48.710;9.392;2022-08-11T02:08:32;6.80;;;6.20;;
813;SDS011;389;48.710;9.392;2022-08-11T02:11:26;6.40;;;5.80;;
813;SDS011;389;48.710;9.392;2022-08-11T02:19:12;7.47;;;6.77;;
813;SDS011;389;48.710;9.392;2022-08-11T02:25:03;8.80;;;7.00;;
813;SDS011;389;48.710;9.392;2022-08-11T02:30:02;6.70;;;6.10;;
813;SDS011;389;48.710;9.392;2022-08-11T02:35:56;6.97;;;6.37;;
813;SDS011;389;48.710;9.392;2022-08-11T02:41:24;7.17;;;6.47;;
813;SDS011;389;48.710;9.392;2022-08-11T02:47:28;6.97;;;6.37;;
813;SDS011;389;48.710;9.392;2022-08-11T02:53:39;5.97;;;5.37;;
813;SDS011;389;48.710;9.392;2022-08-11T03:16:17;6.17;;;5.67;;
813;SDS011;389;48.710;9.392;2022-08-11T03:27:08;7.27;;;6.53;;
813;SDS011;389;48.710;9.392;2022-08-11T03:38:31;7.73;;;6.93;;
813;SDS011;389;48.710;9.392;2022-08-11T03:41:39;7.10;;;6.50;;
813;SDS011;389;48.710;9.392;2022-08-11T03:50:23;8.07;;;6.93;;
813;SDS011;389;48.710;9.392;2022-08-11T03:53:18;8.63;;;7.43;;
813;SDS011;389;48.710;9.392;2022-08-11T04:09:59;8.40;;;7.20;;
813;SDS011;389;48.710;9.392;2022-08-11T04:24:50;8.60;;;6.90;;
813;SDS011;389;48.710;9.392;2022-08-11T04:30:10;7.40;;;6.70;;
813;SDS011;389;48.710;9.392;2022-08-11T04:32:56;7.23;;;6.63;;
813;SDS011;389;48.710;9.392;2022-08-11T04:57:36;8.70;;;6.60;;
813;SDS011;389;48.710;9.392;2022-08-11T05:00:41;6.77;;;6.17;;
813;SDS011;389;48.710;9.392;2022-08-11T05:03:52;6.80;;;5.57;;
813;SDS011;389;48.710;9.392;2022-08-11T05:09:36;8.17;;;7.00;;
813;SDS011;389;48.710;9.392;2022-08-11T05:14:53;8.83;;;7.40;;
813;SDS011;389;48.710;9.392;2022-08-11T05:17:41;7.50;;;6.80;;
813;SDS011;389;48.710;9.392;2022-08-11T05:20:49;7.50;;;6.70;;
813;SDS011;389;48.710;9.392;2022-08-11T05:23:38;7.73;;;6.93;;
813;SDS011;389;48.710;9.392;2022-08-11T05:26:25;8.20;;;6.80;;
813;SDS011;389;48.710;9.392;2022-08-11T05:29:24;6.70;;;6.10;;
813;SDS011;389;48.710;9.392;2022-08-11T05:32:18;7.23;;;6.53;;
813;SDS011;389;48.710;9.392;2022-08-11T05:35:04;8.13;;;6.80;;
813;SDS011;389;48.710;9.392;2022-08-11T05:37:40;7.33;;;6.73;;
813;SDS011;389;48.710;9.392;2022-08-11T05:40:27;6.90;;;6.27;;
813;SDS011;389;48.710;9.392;2022-08-11T05:43:13;7.53;;;6.70;;
813;SDS011;389;48.710;9.392;2022-08-11T05:45:59;7.60;;;6.90;;
813;SDS011;389;48.710;9.392;2022-08-11T05:48:48;7.40;;;6.67;;
813;SDS011;389;48.710;9.392;2022-08-11T05:51:38;8.93;;;6.60;;
813;SDS011;389;48.710;9.392;2022-08-11T05:54:25;8.43;;;7.43;;
813;SDS011;389;48.710;9.392;2022-08-11T05:57:17;10.00;;;6.93;;
813;SDS011;389;48.710;9.392;2022-08-11T05:59:58;7.90;;;6.77;;
813;SDS011;389;48.710;9.392;2022-08-11T06:02:38;8.73;;;6.70;;
813;SDS011;389;48.710;9.392;2022-08-11T06:05:10;10.03;;;7.10;;
813;SDS011;389;48.710;9.392;2022-08-11T06:07:37;8.50;;;6.27;;
813;SDS011;389;48.710;9.392;2022-08-11T06:10:03;11.20;;;6.80;;
813;SDS011;389;48.710;9.392;2022-08-11T06:12:30;8.93;;;7.13;;
813;SDS011;389;48.710;9.392;2022-08-11T06:15:05;7.27;;;6.57;;
813;SDS011;389;48.710;9.392;2022-08-11T06:17:34;8.47;;;6.90;;
813;SDS011;389;48.710;9.392;2022-08-11T06:20:07;8.13;;;6.40;;
813;SDS011;389;48.710;9.392;2022-08-11T06:22:36;7.30;;;6.60;;
813;SDS011;389;48.710;9.392;2022-08-11T06:25:03;7.77;;;6.50;;
813;SDS011;389;48.710;9.392;2022-08-11T06:27:32;9.07;;;6.73;;
813;SDS011;389;48.710;9.392;2022-08-11T06:30:00;6.87;;;6.17;;
813;SDS011;389;48.710;9.392;2022-08-11T06:32:30;8.00;;;6.20;;
813;SDS011;389;48.710;9.392;2022-08-11T06:37:38;9.43;;;6.13;;
813;SDS011;389;48.710;9.392;2022-08-11T06:43:07;5.30;;;4.80;;
813;SDS011;389;48.710;9.392;2022-08-11T06:48:28;5.30;;;4.60;;
813;SDS011;389;48.710;9.392;2022-08-11T06:50:58;8.30;;;5.40;;
813;SDS011;389;48.710;9.392;2022-08-11T06:53:48;6.67;;;4.70;;
813;SDS011;389;48.710;9.392;2022-08-11T06:56:20;6.23;;;5.07;;
813;SDS011;389;48.710;9.392;2022-08-11T06:59:06;5.00;;;4.57;;
813;SDS011;389;48.710;9.392;2022-08-11T07:01:59;6.00;;;5.03;;
813;SDS011;389;48.710;9.392;2022-08-11T07:04:39;4.93;;;4.40;;
813;SDS011;389;48.710;9.392;2022-08-11T07:13:01;5.00;;;4.40;;
813;SDS011;389;48.710;9.392;2022-08-11T07:15:46;5.20;;;4.70;;
813;SDS011;389;48.710;9.392;2022-08-11T07:18:20;6.57;;;5.00;;
813;SDS011;389;48.710;9.392;2022-08-11T07:21:11;5.50;;;5.10;;
813;SDS011;389;48.710;9.392;2022-08-11T07:24:16;4.83;;;4.33;;
813;SDS011;389;48.710;9.392;2022-08-11T07:27:05;4.90;;;4.40;;
813;SDS011;389;48.710;9.392;2022-08-11T07:29:52;8.73;;;5.10;;
813;SDS011;389;48.710;9.392;2022-08-11T07:32:30;4.77;;;4.37;;
813;SDS011;389;48.710;9.392;2022-08-11T07:37:30;4.90;;;4.50;;
813;SDS011;389;48.710;9.392;2022-08-11T07:39:58;5.17;;;4.67;;
813;SDS011;389;48.710;9.392;2022-08-11T07:42:29;6.07;;;4.93;;
813;SDS011;389;48.710;9.392;2022-08-11T07:44:59;4.53;;;4.13;;
813;SDS011;389;48.710;9.392;2022-08-11T07:47:47;6.33;;;5.00;;
813;SDS011;389;48.710;9.392;2022-08-11T07:50:33;4.50;;;4.20;;
813;SDS011;389;48.710;9.392;2022-08-11T07:53:18;5.40;;;5.00;;
813;SDS011;389;48.710;9.392;2022-08-11T07:55:47;5.47;;;4.93;;
813;SDS011;389;48.710;9.392;2022-08-11T07:58:14;5.20;;;4.57;;
813;SDS011;389;48.710;9.392;2022-08-11T08:00:59;5.60;;;4.57;;
813;SDS011;389;48.710;9.392;2022-08-11T08:03:44;5.27;;;4.67;;
813;SDS011;389;48.710;9.392;2022-08-11T08:06:30;6.27;;;4.30;;
813;SDS011;389;48.710;9.392;2022-08-11T08:09:16;7.80;;;5.00;;
813;SDS011;389;48.710;9.392;2022-08-11T08:12:02;6.03;;;4.57;;
813;SDS011;389;48.710;9.392;2022-08-11T08:14:48;6.33;;;4.23;;
813;SDS011;389;48.710;9.392;2022-08-11T08:17:33;5.33;;;4.83;;
813;SDS011;389;48.710;9.392;2022-08-11T08:20:19;5.43;;;4.60;;
813;SDS011;389;48.710;9.392;2022-08-11T08:23:06;6.20;;;5.60;;
813;SDS011;389;48.710;9.392;2022-08-11T08:25:37;4.93;;;4.53;;
813;SDS011;389;48.710;9.392;2022-08-11T08:28:06;6.07;;;4.90;;
813;SDS011;389;48.710;9.392;2022-08-11T08:30:34;9.77;;;5.30;;
813;SDS011;389;48.710;9.392;2022-08-11T08:33:35;5.10;;;4.70;;
813;SDS011;389;48.710;9.392;2022-08-11T08:36:04;6.37;;;4.13;;
813;SDS011;389;48.710;9.392;2022-08-11T08:38:38;4.43;;;4.13;;
813;SDS011;389;48.710;9.392;2022-08-11T08:41:18;4.30;;;3.90;;
813;SDS011;389;48.710;9.392;2022-08-11T08:43:54;5.83;;;4.30;;
813;SDS011;389;48.710;9.392;2022-08-11T08:46:28;7.40;;;4.50;;
813;SDS011;389;48.710;9.392;2022-08-11T08:49:02;4.37;;;3.97;;
813;SDS011;389;48.710;9.392;2022-08-11T08:51:29;5.63;;;4.10;;
813;SDS011;389;48.710;9.392;2022-08-11T08:54:02;4.47;;;4.07;;
813;SDS011;389;48.710;9.392;2022-08-11T08:56:37;8.60;;;4.77;;
813;SDS011;389;48.710;9.392;2022-08-11T08:59:04;4.27;;;3.97;;
813;SDS011;389;48.710;9.392;2022-08-11T09:01:32;4.67;;;4.27;;
813;SDS011;389;48.710;9.392;2022-08-11T09:04:08;4.17;;;3.87;;
813;SDS011;389;48.710;9.392;2022-08-11T09:06:36;5.47;;;3.70;;
813;SDS011;389;48.710;9.392;2022-08-11T09:09:07;4.20;;;3.80;;
813;SDS011;389;48.710;9.392;2022-08-11T09:11:34;4.77;;;4.27;;
813;SDS011;389;48.710;9.392;2022-08-11T09:14:26;3.87;;;3.57;;
813;SDS011;389;48.710;9.392;2022-08-11T09:17:42;6.23;;;3.80;;
813;SDS011;389;48.710;9.392;2022-08-11T09:20:11;3.90;;;3.60;;
813;SDS011;389;48.710;9.392;2022-08-11T09:22:40;4.10;;;3.80;;
813;SDS011;389;48.710;9.392;2022-08-11T09:25:27;4.77;;;3.50;;
813;SDS011;389;48.710;9.392;2022-08-11T09:28:13;3.90;;;3.60;;
813;SDS011;389;48.710;9.392;2022-08-11T09:30:42;4.53;;;3.90;;
813;SDS011;389;48.710;9.392;2022-08-11T09:33:10;4.20;;;3.80;;
813;SDS011;389;48.710;9.392;2022-08-11T09:35:39;4.30;;;2.97;;
813;SDS011;389;48.710;9.392;2022-08-11T09:38:07;4.90;;;3.57;;
813;SDS011;389;48.710;9.392;2022-08-11T09:40:55;3.70;;;3.40;;
813;SDS011;389;48.710;9.392;2022-08-11T09:43:21;4.27;;;3.63;;
813;SDS011;389;48.710;9.392;2022-08-11T09:46:07;6.30;;;3.20;;
813;SDS011;389;48.710;9.392;2022-08-11T09:48:44;3.60;;;3.30;;
813;SDS011;389;48.710;9.392;2022-08-11T09:51:10;9.43;;;3.67;;
813;SDS011;389;48.710;9.392;2022-08-11T09:53:38;3.57;;;3.37;;
813;SDS011;389;48.710;9.392;2022-08-11T09:56:12;7.13;;;3.47;;
813;SDS011;389;48.710;9.392;2022-08-11T09:58:58;3.40;;;3.20;;
813;SDS011;389;48.710;9.392;2022-08-11T10:01:27;3.17;;;2.97;;
813;SDS011;389;48.710;9.392;2022-08-11T10:03:59;4.30;;;3.50;;
813;SDS011;389;48.710;9.392;2022-08-11T10:06:43;3.50;;;3.30;;
813;SDS011;389;48.710;9.392;2022-08-11T10:09:33;4.40;;;3.20;;
813;SDS011;389;48.710;9.392;2022-08-11T10:12:20;3.20;;;3.00;;
813;SDS011;389;48.710;9.392;2022-08-11T10:14:52;3.77;;;3.10;;
813;SDS011;389;48.710;9.392;2022-08-11T10:17:41;2.90;;;2.70;;
813;SDS011;389;48.710;9.392;2022-08-11T10:20:27;3.37;;;3.07;;
813;SDS011;389;48.710;9.392;2022-08-11T10:22:56;4.30;;;3.40;;
813;SDS011;389;48.710;9.392;2022-08-11T10:25:41;3.50;;;3.20;;
813;SDS011;389;48.710;9.392;2022-08-11T10:28:25;6.13;;;3.33;;
813;SDS011;389;48.710;9.392;2022-08-11T10:30:52;3.40;;;3.00;;
813;SDS011;389;48.710;9.392;2022-08-11T10:33:37;2.67;;;2.47;;
813;SDS011;389;48.710;9.392;2022-08-11T10:36:22;3.03;;;2.83;;
813;SDS011;389;48.710;9.392;2022-08-11T10:38:47;3.47;;;3.20;;
813;SDS011;389;48.710;9.392;2022-08-11T10:41:16;3.07;;;2.80;;
813;SDS011;389;48.710;9.392;2022-08-11T10:44:01;4.13;;;2.87;;
813;SDS011;389;48.710;9.392;2022-08-11T10:46:28;3.60;;;2.90;;
813;SDS011;389;48.710;9.392;2022-08-11T10:49:13;3.93;;;3.10;;
813;SDS011;389;48.710;9.392;2022-08-11T10:51:38;3.67;;;3.17;;
813;SDS011;389;48.710;9.392;2022-08-11T10:54:23;5.83;;;3.30;;
813;SDS011;389;48.710;9.392;2022-08-11T10:57:08;6.33;;;3.00;;
813;SDS011;389;48.710;9.392;2022-08-11T10:59:54;3.03;;;2.80;;
813;SDS011;389;48.710;9.392;2022-08-11T11:02:21;3.33;;;3.03;;
813;SDS011;389;48.710;9.392;2022-08-11T11:07:17;3.37;;;3.07;;
813;SDS011;389;48.710;9.392;2022-08-11T11:09:49;3.50;;;2.80;;
813;SDS011;389;48.710;9.392;2022-08-11T11:12:32;3.40;;;2.93;;
813;SDS011;389;48.710;9.392;2022-08-11T11:15:20;3.27;;;2.97;;
813;SDS011;389;48.710;9.392;2022-08-11T11:18:07;3.80;;;3.00;;
813;SDS011;389;48.710;9.392;2022-08-11T11:23:17;3.30;;;3.00;;
813;SDS011;389;48.710;9.392;2022-08-11T11:37:31;3.20;;;3.00;;
813;SDS011;389;48.710;9.392;2022-08-11T11:40:01;2.83;;;2.73;;
813;SDS011;389;48.710;9.392;2022-08-11T11:42:34;2.77;;;2.57;;
813;SDS011;389;48.710;9.392;2022-08-11T11:45:00;4.50;;;2.60;;
813;SDS011;389;48.710;9.392;2022-08-11T11:47:27;3.37;;;3.00;;
813;SDS011;389;48.710;9.392;2022-08-11T11:49:54;3.40;;;3.03;;
813;SDS011;389;48.710;9.392;2022-08-11T11:52:21;3.70;;;2.57;;
813;SDS011;389;48.710;9.392;2022-08-11T11:54:48;2.90;;;2.70;;
813;SDS011;389;48.710;9.392;2022-08-11T11:57:19;3.07;;;2.80;;
813;SDS011;389;48.710;9.392;2022-08-11T12:00:04;4.37;;;3.10;;
813;SDS011;389;48.710;9.392;2022-08-11T12:02:50;3.20;;;2.77;;
813;SDS011;389;48.710;9.392;2022-08-11T12:05:16;2.90;;;2.70;;
813;SDS011;389;48.710;9.392;2022-08-11T12:07:43;3.20;;;3.00;;
813;SDS011;389;48.710;9.392;2022-08-11T12:10:28;3.00;;;2.77;;
813;SDS011;389;48.710;9.392;2022-08-11T12:12:55;3.50;;;2.73;;
813;SDS011;389;48.710;9.392;2022-08-11T12:15:44;3.70;;;2.90;;
813;SDS011;389;48.710;9.392;2022-08-11T12:18:11;3.17;;;2.87;;
813;SDS011;389;48.710;9.392;2022-08-11T12:20:37;2.97;;;2.13;;
813;SDS011;389;48.710;9.392;2022-08-11T12:23:04;4.70;;;2.77;;
813;SDS011;389;48.710;9.392;2022-08-11T12:26:02;2.90;;;2.60;;
813;SDS011;389;48.710;9.392;2022-08-11T12:28:46;3.00;;;2.80;;
813;SDS011;389;48.710;9.392;2022-08-11T12:31:12;3.43;;;3.13;;
813;SDS011;389;48.710;9.392;2022-08-11T12:33:38;3.30;;;3.00;;
813;SDS011;389;48.710;9.392;2022-08-11T12:36:08;3.20;;;2.90;;
813;SDS011;389;48.710;9.392;2022-08-11T12:38:39;3.70;;;2.90;;
813;SDS011;389;48.710;9.392;2022-08-11T12:41:06;4.50;;;2.80;;
813;SDS011;389;48.710;9.392;2022-08-11T12:43:50;2.83;;;2.63;;
813;SDS011;389;48.710;9.392;2022-08-11T12:46:35;2.70;;;2.60;;
813;SDS011;389;48.710;9.392;2022-08-11T12:49:22;3.23;;;3.03;;
813;SDS011;389;48.710;9.392;2022-08-11T12:52:08;4.17;;;2.87;;
813;SDS011;389;48.710;9.392;2022-08-11T12:57:37;2.77;;;2.50;;
813;SDS011;389;48.710;9.392;2022-08-11T13:00:26;2.53;;;2.43;;
813;SDS011;389;48.710;9.392;2022-08-11T13:03:13;3.90;;;3.70;;
813;SDS011;389;48.710;9.392;2022-08-11T13:06:01;2.83;;;2.50;;
813;SDS011;389;48.710;9.392;2022-08-11T13:08:28;2.60;;;2.40;;
813;SDS011;389;48.710;9.392;2022-08-11T13:10:57;2.93;;;2.73;;
813;SDS011;389;48.710;9.392;2022-08-11T13:13:44;2.77;;;2.60;;
813;SDS011;389;48.710;9.392;2022-08-11T13:16:12;3.80;;;2.33;;
813;SDS011;389;48.710;9.392;2022-08-11T13:18:39;2.90;;;2.63;;
813;SDS011;389;48.710;9.392;2022-08-11T13:21:06;2.70;;;2.60;;
813;SDS011;389;48.710;9.392;2022-08-11T13:23:35;3.20;;;3.00;;
813;SDS011;389;48.710;9.392;2022-08-11T13:26:02;4.00;;;3.07;;
813;SDS011;389;48.710;9.392;2022-08-11T13:28:29;3.30;;;3.00;;
813;SDS011;389;48.710;9.392;2022-08-11T13:30:55;3.17;;;2.97;;
813;SDS011;389;48.710;9.392;2022-08-11T13:33:43;3.03;;;2.83;;
813;SDS011;389;48.710;9.392;2022-08-11T13:36:11;2.77;;;2.57;;
813;SDS011;389;48.710;9.392;2022-08-11T13:38:40;2.93;;;2.70;;
813;SDS011;389;48.710;9.392;2022-08-11T13:41:07;5.60;;;3.03;;
813;SDS011;389;48.710;9.392;2022-08-11T13:43:54;3.87;;;2.70;;
813;SDS011;389;48.710;9.392;2022-08-11T13:46:21;5.47;;;2.50;;
813;SDS011;389;48.710;9.392;2022-08-11T13:48:51;3.93;;;2.70;;
813;SDS011;389;48.710;9.392;2022-08-11T13:51:19;3.10;;;2.80;;
813;SDS011;389;48.710;9.392;2022-08-11T13:54:06;2.87;;;2.67;;
813;SDS011;389;48.710;9.392;2022-08-11T13:56:35;2.93;;;2.70;;
813;SDS011;389;48.710;9.392;2022-08-11T13:59:06;2.90;;;2.70;;
813;SDS011;389;48.710;9.392;2022-08-11T14:01:32;2.70;;;2.50;;
813;SDS011;389;48.710;9.392;2022-08-11T14:04:08;2.87;;;2.37;;
813;SDS011;389;48.710;9.392;2022-08-11T14:06:37;3.23;;;2.90;;
813;SDS011;389;48.710;9.392;2022-08-11T14:09:09;3.13;;;2.47;;
813;SDS011;389;48.710;9.392;2022-08-11T14:11:36;2.63;;;2.43;;
813;SDS011;389;48.710;9.392;2022-08-11T14:14:24;3.10;;;2.90;;
813;SDS011;389;48.710;9.392;2022-08-11T14:16:56;3.37;;;2.80;;
813;SDS011;389;48.710;9.392;2022-08-11T14:19:27;3.30;;;2.70;;
813;SDS011;389;48.710;9.392;2022-08-11T14:21:56;2.20;;;2.10;;
813;SDS011;389;48.710;9.392;2022-08-11T14:24:31;3.50;;;2.70;;
813;SDS011;389;48.710;9.392;2022-08-11T14:27:09;2.57;;;2.40;;
813;SDS011;389;48.710;9.392;2022-08-11T14:29:37;2.83;;;2.63;;
813;SDS011;389;48.710;9.392;2022-08-11T14:32:06;3.07;;;2.57;;
813;SDS011;389;48.710;9.392;2022-08-11T14:34:34;3.07;;;2.80;;
813;SDS011;389;48.710;9.392;2022-08-11T14:37:04;3.30;;;2.87;;
813;SDS011;389;48.710;9.392;2022-08-11T14:39:45;3.07;;;2.87;;
813;SDS011;389;48.710;9.392;2022-08-11T14:42:14;3.30;;;2.77;;
813;SDS011;389;48.710;9.392;2022-08-11T14:45:02;2.70;;;2.33;;
813;SDS011;389;48.710;9.392;2022-08-11T14:47:50;2.80;;;2.60;;
813;SDS011;389;48.710;9.392;2022-08-11T14:50:25;3.17;;;2.87;;
813;SDS011;389;48.710;9.392;2022-08-11T14:52:54;3.33;;;2.77;;
813;SDS011;389;48.710;9.392;2022-08-11T14:55:25;3.13;;;2.93;;
813;SDS011;389;48.710;9.392;2022-08-11T14:58:12;5.70;;;3.30;;
813;SDS011;389;48.710;9.392;2022-08-11T15:00:41;2.97;;;2.77;;
813;SDS011;389;48.710;9.392;2022-08-11T15:03:09;2.80;;;2.60;;
813;SDS011;389;48.710;9.392;2022-08-11T15:05:45;3.37;;;2.80;;
813;SDS011;389;48.710;9.392;2022-08-11T15:08:13;3.00;;;2.80;;
813;SDS011;389;48.710;9.392;2022-08-11T15:10:40;3.00;;;2.67;;
813;SDS011;389;48.710;9.392;2022-08-11T15:13:06;7.60;;;3.07;;
813;SDS011;389;48.710;9.392;2022-08-11T15:15:35;2.87;;;2.67;;
813;SDS011;389;48.710;9.392;2022-08-11T15:18:23;3.70;;;2.67;;
813;SDS011;389;48.710;9.392;2022-08-11T15:20:50;3.83;;;3.00;;
813;SDS011;389;48.710;9.392;2022-08-11T15:23:36;3.23;;;2.60;;
813;SDS011;389;48.710;9.392;2022-08-11T15:26:33;5.30;;;2.77;;
813;SDS011;389;48.710;9.392;2022-08-11T15:29:22;2.90;;;2.60;;
813;SDS011;389;48.710;9.392;2022-08-11T15:32:08;3.13;;;2.80;;
813;SDS011;389;48.710;9.392;2022-08-11T15:34:57;8.80;;;2.83;;
813;SDS011;389;48.710;9.392;2022-08-11T15:37:43;3.83;;;2.63;;
813;SDS011;389;48.710;9.392;2022-08-11T15:40:27;3.63;;;2.60;;
813;SDS011;389;48.710;9.392;2022-08-11T15:46:16;2.53;;;2.40;;
813;SDS011;389;48.710;9.392;2022-08-11T15:51:53;3.93;;;2.50;;
813;SDS011;389;48.710;9.392;2022-08-11T15:54:31;3.50;;;2.70;;
813;SDS011;389;48.710;9.392;2022-08-11T15:56:58;2.70;;;2.57;;
813;SDS011;389;48.710;9.392;2022-08-11T15:59:30;2.90;;;2.70;;
813;SDS011;389;48.710;9.392;2022-08-11T16:02:18;2.93;;;2.73;;
813;SDS011;389;48.710;9.392;2022-08-11T16:05:05;2.90;;;2.60;;
813;SDS011;389;48.710;9.392;2022-08-11T16:07:35;3.40;;;2.60;;
813;SDS011;389;48.710;9.392;2022-08-11T16:10:05;2.73;;;2.53;;
813;SDS011;389;48.710;9.392;2022-08-11T16:12:36;2.43;;;2.33;;
813;SDS011;389;48.710;9.392;2022-08-11T16:15:48;2.90;;;2.40;;
813;SDS011;389;48.710;9.392;2022-08-11T16:18:40;2.97;;;2.77;;
813;SDS011;389;48.710;9.392;2022-08-11T16:21:09;2.70;;;2.50;;
813;SDS011;389;48.710;9.392;2022-08-11T16:23:42;5.30;;;2.50;;
813;SDS011;389;48.710;9.392;2022-08-11T16:26:10;2.83;;;2.57;;
813;SDS011;389;48.710;9.392;2022-08-11T16:28:37;3.10;;;2.90;;
813;SDS011;389;48.710;9.392;2022-08-11T16:31:04;2.47;;;2.13;;
813;SDS011;389;48.710;9.392;2022-08-11T16:33:34;3.37;;;2.60;;
813;SDS011;389;48.710;9.392;2022-08-11T16:36:05;2.97;;;2.67;;
813;SDS011;389;48.710;9.392;2022-08-11T16:38:52;4.23;;;2.90;;
813;SDS011;389;48.710;9.392;2022-08-11T16:41:18;3.80;;;2.93;;
813;SDS011;389;48.710;9.392;2022-08-11T16:44:06;4.20;;;2.60;;
813;SDS011;389;48.710;9.392;2022-08-11T16:46:52;2.90;;;2.70;;
813;SDS011;389;48.710;9.392;2022-08-11T16:49:33;3.53;;;2.53;;
813;SDS011;389;48.710;9.392;2022-08-11T16:52:08;4.10;;;2.77;;
813;SDS011;389;48.710;9.392;2022-08-11T16:54:37;2.87;;;2.63;;
813;SDS011;389;48.710;9.392;2022-08-11T16:57:05;5.37;;;2.63;;
813;SDS011;389;48.710;9.392;2022-08-11T17:00:06;2.93;;;2.57;;
813;SDS011;389;48.710;9.392;2022-08-11T17:02:39;3.07;;;2.77;;
813;SDS011;389;48.710;9.392;2022-08-11T17:05:31;3.00;;;2.70;;
813;SDS011;389;48.710;9.392;2022-08-11T17:08:19;7.60;;;2.80;;
813;SDS011;389;48.710;9.392;2022-08-11T17:11:08;3.93;;;2.60;;
813;SDS011;389;48.710;9.392;2022-08-11T17:13:57;2.87;;;2.20;;
813;SDS011;389;48.710;9.392;2022-08-11T17:16:27;3.10;;;2.53;;
813;SDS011;389;48.710;9.392;2022-08-11T17:18:59;4.13;;;3.20;;
813;SDS011;389;48.710;9.392;2022-08-11T17:21:30;3.77;;;2.60;;
813;SDS011;389;48.710;9.392;2022-08-11T17:24:21;5.13;;;2.90;;
813;SDS011;389;48.710;9.392;2022-08-11T17:26:48;4.77;;;3.23;;
813;SDS011;389;48.710;9.392;2022-08-11T17:29:23;3.00;;;2.80;;
813;SDS011;389;48.710;9.392;2022-08-11T17:31:53;2.73;;;2.53;;
813;SDS011;389;48.710;9.392;2022-08-11T17:34:39;3.13;;;2.50;;
813;SDS011;389;48.710;9.392;2022-08-11T17:37:27;3.30;;;2.43;;
813;SDS011;389;48.710;9.392;2022-08-11T17:39:55;3.00;;;2.60;;
813;SDS011;389;48.710;9.392;2022-08-11T17:42:22;3.73;;;2.70;;
813;SDS011;389;48.710;9.392;2022-08-11T17:45:09;3.43;;;2.60;;
813;SDS011;389;48.710;9.392;2022-08-11T17:47:54;3.00;;;2.80;;
813;SDS011;389;48.710;9.392;2022-08-11T17:50:40;4.70;;;2.83;;
813;SDS011;389;48.710;9.392;2022-08-11T17:53:06;3.00;;;2.70;;
813;SDS011;389;48.710;9.392;2022-08-11T17:58:57;2.80;;;2.60;;
813;SDS011;389;48.710;9.392;2022-08-11T18:01:43;2.67;;;2.50;;
813;SDS011;389;48.710;9.392;2022-08-11T18:04:11;8.07;;;2.73;;
813;SDS011;389;48.710;9.392;2022-08-11T18:06:39;2.90;;;2.70;;
813;SDS011;389;48.710;9.392;2022-08-11T18:09:15;3.10;;;2.87;;
813;SDS011;389;48.710;9.392;2022-08-11T18:12:02;2.67;;;2.47;;
813;SDS011;389;48.710;9.392;2022-08-11T18:14:50;3.07;;;2.70;;
813;SDS011;389;48.710;9.392;2022-08-11T18:17:38;3.47;;;3.17;;
813;SDS011;389;48.710;9.392;2022-08-11T18:20:24;4.43;;;2.73;;
813;SDS011;389;48.710;9.392;2022-08-11T18:23:18;4.87;;;2.93;;
813;SDS011;389;48.710;9.392;2022-08-11T18:26:05;4.43;;;2.60;;
813;SDS011;389;48.710;9.392;2022-08-11T18:28:50;3.10;;;2.43;;
813;SDS011;389;48.710;9.392;2022-08-11T18:31:41;2.60;;;2.40;;
813;SDS011;389;48.710;9.392;2022-08-11T18:34:31;3.07;;;2.77;;
813;SDS011;389;48.710;9.392;2022-08-11T18:37:22;4.13;;;2.30;;
813;SDS011;389;48.710;9.392;2022-08-11T18:40:11;6.83;;;3.20;;
813;SDS011;389;48.710;9.392;2022-08-11T18:43:01;2.80;;;2.60;;
813;SDS011;389;48.710;9.392;2022-08-11T18:45:49;3.93;;;2.50;;
813;SDS011;389;48.710;9.392;2022-08-11T18:48:37;2.50;;;2.30;;
813;SDS011;389;48.710;9.392;2022-08-11T18:51:24;3.57;;;2.80;;
813;SDS011;389;48.710;9.392;2022-08-11T18:54:10;5.63;;;3.53;;
813;SDS011;389;48.710;9.392;2022-08-11T18:56:58;4.00;;;2.90;;
813;SDS011;389;48.710;9.392;2022-08-11T18:59:46;6.37;;;3.00;;
813;SDS011;389;48.710;9.392;2022-08-11T19:02:34;3.50;;;3.20;;
813;SDS011;389;48.710;9.392;2022-08-11T19:05:21;3.07;;;2.80;;
813;SDS011;389;48.710;9.392;2022-08-11T19:08:05;5.00;;;2.90;;
813;SDS011;389;48.710;9.392;2022-08-11T19:10:52;3.40;;;3.17;;
813;SDS011;389;48.710;9.392;2022-08-11T19:13:38;7.33;;;3.20;;
813;SDS011;389;48.710;9.392;2022-08-11T19:16:24;3.83;;;3.53;;
813;SDS011;389;48.710;9.392;2022-08-11T19:19:09;3.30;;;3.00;;
813;SDS011;389;48.710;9.392;2022-08-11T19:21:57;4.30;;;3.27;;
813;SDS011;389;48.710;9.392;2022-08-11T19:24:44;3.70;;;3.00;;
813;SDS011;389;48.710;9.392;2022-08-11T19:27:31;3.57;;;3.30;;
813;SDS011;389;48.710;9.392;2022-08-11T19:30:17;3.10;;;2.90;;
813;SDS011;389;48.710;9.392;2022-08-11T19:33:01;2.83;;;2.63;;
813;SDS011;389;48.710;9.392;2022-08-11T19:35:46;3.80;;;3.10;;
813;SDS011;389;48.710;9.392;2022-08-11T19:38:32;3.40;;;3.20;;
813;SDS011;389;48.710;9.392;2022-08-11T19:41:18;3.73;;;3.43;;
813;SDS011;389;48.710;9.392;2022-08-11T19:44:06;3.93;;;3.20;;
813;SDS011;389;48.710;9.392;2022-08-11T19:46:50;6.70;;;3.63;;
813;SDS011;389;48.710;9.392;2022-08-11T19:49:36;4.80;;;3.50;;
813;SDS011;389;48.710;9.392;2022-08-11T19:52:25;3.40;;;3.07;;
813;SDS011;389;48.710;9.392;2022-08-11T19:55:10;5.80;;;3.27;;
813;SDS011;389;48.710;9.392;2022-08-11T19:57:56;3.60;;;3.30;;
813;SDS011;389;48.710;9.392;2022-08-11T20:00:40;3.67;;;3.37;;
813;SDS011;389;48.710;9.392;2022-08-11T20:03:25;3.50;;;3.20;;
813;SDS011;389;48.710;9.392;2022-08-11T20:06:09;5.30;;;3.30;;
813;SDS011;389;48.710;9.392;2022-08-11T20:08:58;3.50;;;3.30;;
813;SDS011;389;48.710;9.392;2022-08-11T20:11:45;3.70;;;3.40;;
813;SDS011;389;48.710;9.392;2022-08-11T20:14:32;5.27;;;3.53;;
813;SDS011;389;48.710;9.392;2022-08-11T20:17:19;3.27;;;3.00;;
813;SDS011;389;48.710;9.392;2022-08-11T20:20:06;3.93;;;3.53;;
813;SDS011;389;48.710;9.392;2022-08-11T20:22:53;3.90;;;3.60;;
813;SDS011;389;48.710;9.392;2022-08-11T20:25:43;4.30;;;4.00;;
813;SDS011;389;48.710;9.392;2022-08-11T20:28:29;4.40;;;3.50;;
813;SDS011;389;48.710;9.392;2022-08-11T20:31:15;3.90;;;3.50;;
813;SDS011;389;48.710;9.392;2022-08-11T20:34:03;3.50;;;3.07;;
813;SDS011;389;48.710;9.392;2022-08-11T20:36:49;3.40;;;3.10;;
813;SDS011;389;48.710;9.392;2022-08-11T20:39:34;3.40;;;3.13;;
813;SDS011;389;48.710;9.392;2022-08-11T20:42:21;4.83;;;3.70;;